Florida AWOS List, Phone Numbers

USA |  
| Search AWOS

Rocky Mountain States: Montana | Wyoming | Colorado | New Mexico

Complete weather reports: Florida

Legend: KFNL = METAR available Follow your local AWOS on AV Mobile = METAR available on AV Mobile
Station Florida Location Frequency Phone
KAQQICAO ID KAQQ Apalachicola, Apalachicola
KAAFFAA ID AAF, ASOS, KAAF 290753Z AUTO 10008G17KT 10SM SCT024 SCT038 28/25 A2995 RMK AO2 SLP141 T02830250 Follow KAAF on AV Mobile APALACHICOLA MUNICIPAL AIRPORT 119.925 850-653-8271
KNAEICAO ID KNAE Astor, Bombing Range Detachment Astor
KAVOFAA ID AVO, AWOS-3 AVON PARK 118.725 863-453-4223
KAGRFAA ID AGR Avon Park Gunnery Range
KBOWFAA ID BOW, AWOS-3, KBOW 290835Z AUTO 05006KT 10SM CLR 25/ A2993 RMK AO2 Follow KBOW on AV Mobile Bartow Municipal 123.775 863-533-9004
F95FAA ID F95, AWOS-AV, KDYA 290915Z AUTO 00000KT 7SM 23/23 A3001 RMK AO2 T02330232 Follow  on AV Mobile BLOUNTSTOWN 119.350 850-674-1347
KBCTFAA ID BCT, AWOS-3, KBCT 290247Z 13006KT 10SM CLR 27/25 A2994 RMK LAST Follow KBCT on AV Mobile Boca Raton, Boca Raton Airport 121.125 561-391-2696
K1J0FAA ID 1J0, K1J0 290658Z AUTO 00000KT 10SM CLR 23/22 A3000 RMK AO2 SLP116 T02330222 Follow K1J0 on AV Mobile TRI COUNTY AIRPORT
KBKVFAA ID BKV, ASOS, KBKV 290753Z AUTO 07005KT 10SM CLR 25/24 A2995 RMK AO2 SLP138 T02500244 Follow KBKV on AV Mobile BROOKSVILLE HERNANDO CO AIRPORT 134.725 352-799-5881
K1J4ICAO ID K1J4 Cape San Blas Coast Guard Station
KNZCICAO ID KNZC Cecil, Naval Air Station
KCLWFAA ID CLW, AWOS-3P, KCLW 290835Z AUTO 07005KT 10SM SCT010 25/24 A2992 RMK AO2 Follow KCLW on AV Mobile CLEARWATER 119.225 727-449-2184
2ISFAA ID 2IS, AWOS-3, KDYA 290915Z AUTO 00000KT 7SM 23/23 A3001 RMK AO2 T02330232 Follow  on AV Mobile CLEWISTON 124.175 863-983-7020
KX53ICAO ID KX53 Clewiston
KCOFFAA ID COF, KCOF 290758Z AUTO 09007KT 10SM FEW090 28/25 A2992 RMK AO2 SLP136 T02770246 Follow KCOF on AV Mobile Cocoa / Patrick Air Force Base
KXMRFAA ID XMR, KXMR 290758Z AUTO 08002KT 10SM CLR 26/24 A2992 RMK AO2 SLP135 T02620238 $ Follow KXMR on AV Mobile Cocoa Beach, Cape Canaveral Air Force Station Skid Strip
KCEWFAA ID CEW, ASOS, KCEW 290753Z AUTO 05003KT 10SM CLR 24/22 A3000 RMK AO2 SLP155 T02390222 Follow KCEW on AV Mobile CRESTVIEW SIKES AIRPORT 119.275 850-682-1237
KEGIFAA ID EGI, KEGI 290758Z AUTO 06001KT 10SM CLR 24/23 A2997 RMK AO2 SLP149 T02380228 $ Follow KEGI on AV Mobile Duke Field / Eglin Auxiliary
KCTYFAA ID CTY, KCTY 290835Z AUTO 05005KT 10SM CLR 24/23 A2997 Follow KCTY on AV Mobile CROSS CITY AIRPORT
KCGCFAA ID CGC, AWOS-3, KCGC 290835Z AUTO 07004KT 10SM CLR 25/23 A2995 RMK AO2 Follow KCGC on AV Mobile CRYSTAL RIVER 118.325 352-563-6600
KDABFAA ID DAB, ASOS, KDAB 290818Z 12004KT 10SM SCT020 SCT070 27/23 A2995 Follow KDAB on AV Mobile DAYTONA BEACH INTERNATIONAL 386-253-7469
54JFAA ID 54J, AWOS-3P, KDYA 290915Z AUTO 00000KT 7SM 23/23 A3001 RMK AO2 T02330232 Follow  on AV Mobile DEFUNIAK SPRINGS 118.725 850-892-0147
KDEDFAA ID DED, AWOS-3, KDED 290835Z AUTO 05005KT 5SM +RA BR SCT015 BKN035 OVC090 24/23 A2995 RMK AO2 LTG DSNT E Follow KDED on AV Mobile DELAND 119.575 386-740-5811
KDTSFAA ID DTS, ASOS, KDTS 290753Z AUTO 08007KT 10SM CLR 28/24 A2997 RMK AO2 SLP147 T02780239 Follow KDTS on AV Mobile DESTIN-FT WALTON BEACH AIRPORT 133.925 850-654-7128
KX91ICAO ID KX91 Egmont Key Coast Guard Station
KFHBFAA ID FHB, AWOS-3, KFHB 290835Z AUTO 07006KT 10SM CLR 28/24 A2998 RMK AO1 LTG DSNT SE Follow KFHB on AV Mobile FERNANDINA BEACH 118.075 904-277-7323
KFXEFAA ID FXE, ASOS, KFXE 290753Z 25004KT 10SM SCT021 SCT034 25/23 A2989 Follow KFXE on AV Mobile FORT LAUDERDALE EXECUTIVE 954-772-2537
KFLLFAA ID FLL, ASOS, KFLL 290753Z 26005KT 10SM SCT022 SCT036 SCT250 25/23 A2988 Follow KFLL on AV Mobile FORT LAUDERDALE/HOLLYWOOD 954-359-7857
KFMYFAA ID FMY, ASOS, KFMY 290753Z AUTO 08006KT 10SM CLR 25/23 A2989 RMK AO2 SLP122 T02500233 Follow KFMY on AV Mobile FORT MYERS PAGE FIELD 239-936-2318
KRSWFAA ID RSW, ASOS, KRSW 290753Z AUTO 07005KT 10SM CLR 25/23 A2989 RMK AO2 SLP120 T02500233 Follow KRSW on AV Mobile FORT MYERS SW FL INTERNATIONAL AIRPORT 239-561-0966
KX82ICAO ID KX82 Fort Pierce Coast Guard Station
KFPRFAA ID FPR, ASOS, KFPR 290753Z AUTO 10005KT 10SM FEW060 FEW085 26/24 A2991 Follow KFPR on AV Mobile FORT PIERCE ST LUCIE 772-489-4281
KX86ICAO ID KX86 Fowey Rocks Coast Guard Station
KX89ICAO ID KX89 Ft. Myers Beach Coast Guard Station
KGNVFAA ID GNV, ASOS, KGNV 290753Z AUTO 04004KT 10SM CLR 25/23 A2997 Follow KGNV on AV Mobile GAINESVILLE REGIONAL AIRPORT 352-335-8672
KHWOFAA ID HWO, ASOS, KHWO 282353Z 12014KT 10SM SCT025 28/24 A2990 Follow KHWO on AV Mobile HOLLYWOOD NORTH PERRY AIRPORT 954-983-5904
X51FAA ID X51, AWOS-3, KDYA 290915Z AUTO 00000KT 7SM 23/23 A3001 RMK AO2 T02330232 Follow  on AV Mobile HOMESTEAD 118.375 (305) 247-2791
KHSTFAA ID HST, KHST 290848Z AUTO 10003KT 10SM BKN019 BKN024 26/24 A2986 RMK AO2 CIG 019V024 BKN019 V SCT Follow KHST on AV Mobile Homestead Air Force Base
KIMMFAA ID IMM, AWOS-3, KIMM 161355Z AUTO 10007KT FEW016 A3015 RMK A01 P000 Follow KIMM on AV Mobile IMMOKALEE 118.525 239-657-2038
KINFFAA ID INF, AWOS-3, KINF 290835Z AUTO 03003KT 10SM CLR 24/24 A2995 RMK AO2 LTG DSNT NE Follow KINF on AV Mobile INVERNESS 119.975 352-341-0264
KX84ICAO ID KX84 Islamorada Coast Guard Station
KHEGFAA ID HEG, AWOS-3 JACKSONVILLE 119.275 904-695-0334
KCRGFAA ID CRG, ASOS, KCRG 290753Z AUTO 07004KT 10SM CLR 27/24 A2998 RMK AO2 SLP152 T02670239 Follow KCRG on AV Mobile JACKSONVILLE CRAIG MUN 904-646-4670
KJAXFAA ID JAX, ASOS, KJAX 290756Z 36003KT 10SM FEW030 SCT250 24/24 A2998 RMK AO2 SLP152 T02440239 Follow KJAX on AV Mobile JACKSONVILLE INTERNATIONAL 904-741-4304
KNIPFAA ID NIP, KNIP 290753Z 06005KT 10SM FEW015 SCT250 28/24 A2999 RMK AO2 SLP150 T02830244 $ Follow KNIP on AV Mobile JACKSONVILLE NAVAL AIR STN
KVQQFAA ID VQQ, AWOS-3, KVQQ 290835Z AUTO 00000KT 10SM CLR 24/24 A2998 RMK AO2 Follow KVQQ on AV Mobile Jacksonville, Cecil Field Airport 125.275 904-778-6934
KNENFAA ID NEN NOLF WHITEHOUSE FIELD, FL
KX80ICAO ID KX80 Jupiter Inlet Coast Guard Station
KEYWFAA ID EYW, ASOS, KEYW 290753Z AUTO 15018KT 10SM SCT019 28/24 A2983 Follow KEYW on AV Mobile KEY WEST INTERNATIONAL AIRPORT 119.65 305-292-4046
KNQXFAA ID NQX, KNQX 290809Z AUTO FEW022 M17/ A2982 RMK AO2 T1167 $ Follow KNQX on AV Mobile KEY WEST NAVAL AIR STATION
K42JFAA ID 42J, AWOS-3, K42J 290835Z AUTO 05005KT 10SM CLR 25/25 A2998 RMK AO1 TSNO Follow K42J on AV Mobile KEYSTONE HEIGHTS 124.275 352-473-8273
KLCQFAA ID LCQ, AWOS-3, KLCQ 290835Z AUTO 04003KT 10SM CLR 23/23 A3000 RMK AO2 Follow KLCQ on AV Mobile LAKE CITY 120.675 386-754-9366
X07FAA ID X07, AWOS-3, KDYA 290915Z AUTO 00000KT 7SM 23/23 A3001 RMK AO2 T02330232 Follow  on AV Mobile LAKE WALES 124.225 863-678-1334
KX81ICAO ID KX81 Lake Worth Inlet
KLALFAA ID LAL, AWOS-3PT, KLAL 290835Z AUTO 06007KT 10SM CLR 25/24 A2993 RMK AO2 LTG DSNT NE Follow KLAL on AV Mobile Lakeland Regional 118.025 863-834-2030
KLEEFAA ID LEE, ASOS, KLEE 290753Z AUTO 07005KT 10SM CLR 26/23 A2996 RMK AO2 SLP143 T02610233 PWINO Follow KLEE on AV Mobile LEESBURG REGIONAL AIRPORT 134.325 352-787-1565
K24JFAA ID 24J, AWOS-3, K24J 290855Z AUTO 00000KT 25/25 A3001 RMK AO1 Follow K24J on AV Mobile LIVE OAK 118.225 386-362-1731
KX88ICAO ID KX88 Marathon Coast Guard Station
KMTHFAA ID MTH, ASOS, KMTH 290753Z AUTO 14008G17KT 10SM -RA FEW023 SCT038 BKN060 28/24 A2984 RMK AO2 RAB15E17B37 SLP105 P0000 T02780239 Follow KMTH on AV Mobile MARATHON AIRPORT 135.525 305-743-8373
KMKYFAA ID MKY, AWOS-3, KMKY 271835Z AUTO 07006KT 10SM TS FEW036 SCT050 BKN095 A2989 RMK AO1 LTG DSNT ALQDS TSB01 P0008 Follow KMKY on AV Mobile MARCO ISLAND 120.075 239-394-8187
KMAIFAA ID MAI, ASOS, KMAI 290753Z AUTO 06003KT 10SM CLR 24/22 A2999 RMK AO2 SLP154 T02390222 Follow KMAI on AV Mobile MARIANNA MUNICIPAL AIRPORT 133.525 850-482-6082
KHRTFAA ID HRT, KHRT 290755Z AUTO 05006KT 2SM R36/3000FT BR CLR 24/23 A2996 RMK AO2 Follow KHRT on AV Mobile Hurlburt Field
KNRBFAA ID NRB, KNRB 290852Z AUTO 06012KT 10SM CLR 27/23 A2998 RMK AO2 RAE02 SLP150 P0000 60002 T02670233 56005 Follow KNRB on AV Mobile MAYPORT NAVAL AIR FACILITY
KMLBFAA ID MLB, ASOS, KMLB 290753Z AUTO 09006KT 10SM CLR 28/24 A2992 Follow KMLB on AV Mobile MELBOURNE INTERNATIONAL 321-723-7403
KCOIFAA ID COI, AWOS-3 Merritt Island, Merritt Island Airport 119.025 321-986-8864
KTNTFAA ID TNT, AWOS-3 MIAMI 119.075 (239) 695-9198
KX87ICAO ID KX87 Miami Beach Coast Guard Station
KAMXICAO ID KAMX Miami Nexrad
KTMBFAA ID TMB, ASOS, KTMB 290753Z 10007KT 10SM CLR 26/24 A2988 RMK AO2 SLP116 T02610244 Follow KTMB on AV Mobile KENDALL-TAMIAMI EXEC AIRPORT 305-235-1332
KMIAFAA ID MIA, ASOS, KMIA 290753Z 09007KT 10SM -RA FEW015 SCT021CB OVC140 A2988 Follow KMIA on AV Mobile MIAMI INTERNATIONAL AIRPORT 305-870-0235
KOPFFAA ID OPF, KOPF 290753Z AUTO 00000KT 10SM CLR 24/23 A2989 Follow KOPF on AV Mobile MIAMI OPA LOCKA AIRPORT
KNFJFAA ID NFJ CHOCTAW, WHITING FIELD, NOLF
KNSEFAA ID NSE, KNSE 290756Z AUTO 02004KT 10SM CLR 24/24 A2998 RMK AO2 SLP137 T02390239 $ Follow KNSE on AV Mobile MILTON WHITING FIELD (NORTH)
KNDZFAA ID NDZ, KNDZ 290756Z AUTO 04006KT 10SM SCT090 27/24 A2998 RMK AO2 SLP136 T02670244 $ Follow KNDZ on AV Mobile MILTON WHITING FIELD (SOUTH)
KAPFFAA ID APF, ASOS, KAPF 290753Z AUTO 07008KT 10SM CLR 26/24 A2987 RMK AO2 SLP115 T02560239 Follow KAPF on AV Mobile NAPLES MUNICIPAL AIRPORT 239-643-9886
KRRFICAO ID KRRF New Port Richey, Tampa Bay Executive Airport
KEVBFAA ID EVB, AWOS-3, KEVB 290147Z 08010KT 10SM SCT012 28/25 A2999 RMK LAST Follow KEVB on AV Mobile New Smyrna Beach, New Smyrna Beach Municipal Airport 124.625 386-409-4705
KOCFFAA ID OCF, AWOS-3, KOCF 290835Z AUTO 03003KT 10SM CLR 24/22 A2996 RMK AO1 Follow KOCF on AV Mobile Ocala, Ocala International Airport-Jim Taylor Field 128.125 352-237-8525
KOBEFAA ID OBE, AWOS-3, KOBE 290835Z AUTO 00000KT 10SM CLR 23/23 A2992 RMK AO2 Follow KOBE on AV Mobile Okeechobee County Airport 118.675 863-467-1148
KORLFAA ID ORL, ASOS, KORL 290753Z AUTO 05004KT 10SM CLR 25/23 A2995 RMK AO2 SLP142 T02500233 Follow KORL on AV Mobile ORLANDO EXECUTIVE AIRPORT 407-658-6753
KMCOFAA ID MCO, ASOS, KMCO 290753Z 04006KT 10SM FEW035 26/23 A2994 Follow KMCO on AV Mobile ORLANDO INTERNATIONAL AIRPORT 407-855-5235
KSFBFAA ID SFB, ASOS, KSFB 290753Z AUTO 05003KT 10SM SCT025 25/23 A2995 RMK AO2 SLP140 T02500228 Follow KSFB on AV Mobile ORLANDO SANFORD AIRPORT 407-321-9384
KISMFAA ID ISM, AWOS-3, KISM 290756Z 06005KT 10SM FEW021 BKN039 BKN049 26/24 A2995 RMK AO2 SLP142 T02610244 Follow KISM on AV Mobile Orlando, Kissimmee Municipal Airport 128.775 407-847-0533
KOMNFAA ID OMN, AWOS-3, KOMN 282150Z 07011G18KT 10SM VCSH BKN024 30/24 A2996 Follow KOMN on AV Mobile Ormond Beach, Ormond Beach Municipal Airport 118.475 386-615-7084
K28JFAA ID 28J, AWOS-3, K28J 271655Z AUTO 07011G16KT 10SM 32/23 A3000 RMK AO2 TSNO Follow K28J on AV Mobile PALATKA 119.92 386-312-2212
KFINFAA ID FIN, AWOS-3, KFIN 290015Z AUTO 03008KT 10SM -TSRA BKN017 BKN035 BKN055 26/25 A2998 RMK AO2 LTG DSNT W THRU N T02570253 Follow KFIN on AV Mobile PALM COAST 128.325 386-437-7334
KECPFAA ID ECP, ASOS, KECP 290753Z AUTO 06005KT 10SM CLR 25/23 A2996 Follow KECP on AV Mobile PANAMA CITY 119.975 850-235-7857
KPFNICAO ID KPFN, KPFN 030253Z VRB03KT 10SM FEW023 25/23 A2989 Follow KPFN on AV Mobile PANAMA CITY-BAY CTY INTERNATIONAL
KPAMFAA ID PAM, KPAM 290756Z AUTO 07005KT 10SM CLR 26/23 A2997 RMK AO2 SLP152 T02570231 $ Follow KPAM on AV Mobile Tyndall Air Force Base
KPNSFAA ID PNS, ASOS, KPNS 290753Z AUTO 01004KT 10SM OVC090 26/23 A2996 Follow KPNS on AV Mobile PENSACOLA REGIONAL AIRPORT 850-436-4799
KNPAFAA ID NPA, KNPA 290756Z AUTO 36005KT 10SM OVC090 26/23 A2996 RMK AO2 SLP146 T02610233 $ Follow KNPA on AV Mobile Pensacola, Naval Air Station
K40JFAA ID 40J, AWOS-3PT, K40J 290835Z AUTO 00000KT 10SM CLR 25/23 A2998 RMK AO2 T02450232 Follow K40J on AV Mobile PERRY-FOLEY AIRPORT 118.375 850-838-3526
FA54FAA ID FA54, Belfort CORAL CREEK
KPCMFAA ID PCM, AWOS-3, KPCM 290835Z AUTO 05005KT 10SM CLR 26/25 A2994 RMK AO2 Follow KPCM on AV Mobile Plant City, Plant City Municipal Airport 120.025 813-764-8259
KPMPFAA ID PMP, ASOS, KPMP 290804Z AUTO 22004KT 10SM FEW014 SCT022 26/24 A2989 RMK AO2 LTG DSNT N T02610244 Follow KPMP on AV Mobile POMPANO BEACH AIRPARK 954-783-3720
K1J3ICAO ID K1J3 Ponce De Leon Inlet
KPGDFAA ID PGD, ASOS, KPGD 290753Z 07007KT 10SM CLR 24/24 A2991 RMK AO2 SLP129 T02440239 Follow KPGD on AV Mobile PUNTA GORDA CHARLOTTE COUNTY 135.675 941-639-0076
K2J9FAA ID 2J9, AWOS-3, K2J9 290835Z AUTO 24/23 A3001 RMK AO1 Follow K2J9 on AV Mobile QUINCY 118.975 (850) 627-6264
K1J5ICAO ID K1J5 Santa Rosa Coast Guard Station
KSRQFAA ID SRQ, ASOS, KSRQ 290753Z 08006KT 10SM CLR 26/24 A2989 Follow KSRQ on AV Mobile SARASOTA/BRADENTON INTERNATIONAL . 124.375 941-359-0117
KSEFFAA ID SEF, AWOS-3 SEBRING 119.475 863-655-6424
KSGJFAA ID SGJ, AWOS-3, KSGJ 290758Z AUTO 09009KT 10SM SCT021 SCT026 28/24 A2998 RMK AO2 SLP151 T02830239 Follow KSGJ on AV Mobile St. Augustine, St. Augustine Airport 904-824-7084
KPIEFAA ID PIE, ASOS, KPIE 290840Z AUTO 07010KT 10SM FEW009 27/25 A2991 Follow KPIE on AV Mobile ST PETERSBURG/CLEARWATER 727-531-3456
KSPGFAA ID SPG, ASOS, KSPG 290753Z AUTO 08013KT 10SM CLR 27/25 A2990 RMK AO2 SLP124 T02720250 Follow KSPG on AV Mobile ST PETERSBURG WHITTED AIRPORT 118.875 727-821-4334
KSUAFAA ID SUA, AWOS-3, KSUA 290835Z AUTO 10003KT CLR 28/25 A2992 RMK AO2 LTG DSNT NE PWINO Follow KSUA on AV Mobile Stuart, Witham Field Airport 772-692-7399
KTLHFAA ID TLH, ASOS, KTLH 290753Z AUTO 08007KT 10SM CLR 27/24 A2999 Follow KTLH on AV Mobile TALLAHASSEE REGIONAL AIRPORT 850-576-3665
KTBWICAO ID KTBW Tampa Bay Area
KMCFFAA ID MCF, KMCF 290758Z AUTO 09009KT 10SM CLR 26/26 A2991 RMK AO2 SLP131 T02580258 Follow KMCF on AV Mobile Macdill Air Force Base, Fl.
KTPAFAA ID TPA, ASOS, KTPA 290753Z 06006KT 10SM CLR 26/24 A2992 RMK AO2 SLP133 T02610244 Follow KTPA on AV Mobile TAMPA INTERNATIONAL AIRPORT 813-873-7228
KTPFFAA ID TPF, AWOS-3, KTPF 290835Z AUTO 06009KT 10SM CLR 27/26 A2992 RMK AO2 Follow KTPF on AV Mobile Tampa, Peter O Knight Airport 118.925 813-251-6824
KVDFFAA ID VDF, AWOS-3, KVDF 290835Z AUTO 00000KT 10SM CLR 26/24 A2993 RMK AO2 Follow KVDF on AV Mobile Tampa, Vandenberg Airport 121.125 813-630-0924
KVLGICAO ID KVLG The Villages
KVVGICAO ID KVVG, KVVG 290835Z AUTO 10SM 25/25 A2986 RMK A01 Follow KVVG on AV Mobile The Villages
KX68ICAO ID KX68 Titusville, NASA Shuttle Landing Facility
KTIXFAA ID TIX, KTIX 290047Z 10010KT 7SM SCT030 28/27 A2997 RMK LAST Follow KTIX on AV Mobile Titusville
KX21FAA ID X21, AWOS-3 Titusville, Arthur Dunn Air Park 119.725 321-385-0383
KTTSFAA ID TTS, KTTS 290806Z AUTO 00000KT 10SM FEW018 SCT047 25/23 A2992 RMK AO2 RAE06 Follow KTTS on AV Mobile Titusville, NASA Shuttle Landing Facility
KVPSFAA ID VPS, KVPS 290755Z 08006KT 10SM FEW100 26/23 A2997 RMK AO2A SLP154 T02580227 $ Follow KVPS on AV Mobile Valparaiso / Eglin Air Force Base
KVNCFAA ID VNC, AWOS-3, KVNC 290835Z AUTO 07007KT 10SM CLR 25/25 A2990 RMK AO2 TSNO Follow KVNC on AV Mobile VENICE 119.275
KX90ICAO ID KX90 Venice Long Range Navigation
KVRBFAA ID VRB, ASOS, KVRB 290753Z 11005KT 10SM FEW021 FEW060 27/24 A2992 Follow KVRB on AV Mobile VERO BEACH MUNICIPAL AIRPORT 772-978-9535
F45FAA ID F45, AWOS-3, KDYA 290915Z AUTO 00000KT 7SM 23/23 A3001 RMK AO2 T02330232 Follow  on AV Mobile WEST PALM BEACH 119.975 561-630-6932
KLNAFAA ID LNA, AWOS-3 WEST PALM BEACH 119.925 561-964-0308
KPBIFAA ID PBI, ASOS, KPBI 290845Z 00000KT 10SM FEW019CB SCT070 BKN250 26/23 A2991 RMK AO2 RAE29 TSE0759 CB NW MOV NW P0001 T02610233 $ Follow KPBI on AV Mobile PALM BEACH INTERNATIONAL 123.75 561-683-2548
FD38FAA ID FD38, Belfort WELLINGTON AERO CLUB
KX60FAA ID X60, AWOS-3, KX60 242055Z AUTO 07008KT 360V010 10SM CLR 35/21 A3009 RMK AO1 TSNO Follow KX60 on AV Mobile WILLISTON 118.425 352-528-9949
KGIFFAA ID GIF, ASOS, KGIF 290753Z AUTO 03004KT 10SM CLR 26/24 A2995 RMK AO2 SLP138 T02560239 Follow KGIF on AV Mobile WINTER HAVENS GILBERT AIRPORT 133.675 863-956-2097
KZPHFAA ID ZPH, ASOS, KZPH 290855Z AUTO 04003KT 10SM CLR A2994 RMK AO2 LTG DSNT E AND W Follow KZPH on AV Mobile ZEPHYRHILLS 118.975 813-780-0031

Click on the AV Mobile icon AV Mobile icon by any station to follow that AWOS feed on AirportView.net Mobile.

Leaders in ADS-B Avemco Insurance Company